createdAt,value
2019-05-20T00:01:47.192Z,25.11
2019-05-20T00:04:16.317Z,25.07
2019-05-20T00:06:45.480Z,25.08
2019-05-20T00:09:14.759Z,25.08
2019-05-20T00:11:43.948Z,25.06
2019-05-20T00:14:14.090Z,25.06
2019-05-20T00:17:22.289Z,25.12
2019-05-20T00:19:51.450Z,25.09
2019-05-20T00:22:20.984Z,25.06
2019-05-20T00:24:50.540Z,25.04
2019-05-20T00:27:20.036Z,25.05
2019-05-20T00:29:49.506Z,24.93
2019-05-20T00:32:18.669Z,25.01
2019-05-20T00:34:47.809Z,25.01
2019-05-20T00:37:17.228Z,24.98
2019-05-20T00:39:46.568Z,24.96
2019-05-20T00:42:16.039Z,24.99
2019-05-20T00:44:45.430Z,24.99
2019-05-20T00:47:14.911Z,24.97
2019-05-20T00:49:44.029Z,24.97
2019-05-20T00:52:13.500Z,24.97
2019-05-20T00:54:42.661Z,24.98
2019-05-20T00:57:12.245Z,24.93
2019-05-20T00:59:41.558Z,24.96
2019-05-20T01:02:10.945Z,24.93
2019-05-20T01:04:40.731Z,24.93
2019-05-20T01:07:10.124Z,24.91
2019-05-20T01:09:39.272Z,24.92
2019-05-20T01:12:08.430Z,24.88
2019-05-20T01:14:37.587Z,24.85
2019-05-20T01:17:07.380Z,24.80
2019-05-20T01:19:36.448Z,24.83
2019-05-20T01:22:05.583Z,24.86
2019-05-20T01:24:33.215Z,24.84
2019-05-20T01:27:01.550Z,24.88
2019-05-20T01:29:30.682Z,24.85
2019-05-20T01:31:59.977Z,24.88
2019-05-20T01:34:29.162Z,24.85
2019-05-20T01:36:57.102Z,24.83
2019-05-20T01:39:26.826Z,24.13
2019-05-20T01:41:54.277Z,24.84
2019-05-20T01:44:41.844Z,24.84
2019-05-20T01:47:10.062Z,24.84
2019-05-20T01:49:38.565Z,24.84
2019-05-20T01:52:07.173Z,24.84
2019-05-20T01:54:35.937Z,24.80
2019-05-20T01:57:04.527Z,24.85
2019-05-20T01:59:34.117Z,24.83
2019-05-20T02:02:02.712Z,24.88
2019-05-20T02:04:30.806Z,24.87
2019-05-20T02:06:58.635Z,24.85
2019-05-20T02:09:26.423Z,24.84
2019-05-20T02:11:53.961Z,24.86
2019-05-20T02:14:24.364Z,24.85
2019-05-20T02:16:55.600Z,24.84
2019-05-20T02:19:23.246Z,24.83
2019-05-20T02:21:50.790Z,24.84
2019-05-20T02:24:18.709Z,24.82
2019-05-20T02:26:47.398Z,24.81
2019-05-20T02:29:16.108Z,24.77
2019-05-20T02:31:43.696Z,24.78
2019-05-20T02:34:11.537Z,24.77
2019-05-20T02:36:38.977Z,24.78
2019-05-20T02:39:07.046Z,24.78
2019-05-20T02:41:34.678Z,24.81
2019-05-20T02:44:02.727Z,24.80
2019-05-20T02:46:30.726Z,24.82
2019-05-20T02:48:58.245Z,24.82
2019-05-20T02:51:31.875Z,24.81
2019-05-20T02:54:00.525Z,24.80
2019-05-20T02:56:28.253Z,24.82
2019-05-20T02:58:55.851Z,24.80
2019-05-20T03:01:23.214Z,24.82
2019-05-20T03:04:09.882Z,24.79
2019-05-20T03:06:20.642Z,24.76
2019-05-20T03:08:48.051Z,24.76
2019-05-20T03:11:15.791Z,24.78
2019-05-20T03:13:45.885Z,24.78
2019-05-20T03:16:15.700Z,24.77
2019-05-20T03:18:44.365Z,24.76
2019-05-20T03:21:14.081Z,24.78
2019-05-20T03:23:43.198Z,24.79
2019-05-20T03:26:13.407Z,24.80
2019-05-20T03:28:43.194Z,24.78
2019-05-20T03:31:11.053Z,24.79
2019-05-20T03:33:40.006Z,24.79
2019-05-20T03:36:09.014Z,24.79
2019-05-20T03:38:37.432Z,24.78
2019-05-20T03:41:05.067Z,24.74
2019-05-20T03:43:33.574Z,24.76
2019-05-20T03:46:01.455Z,24.74
2019-05-20T03:48:29.208Z,24.74
2019-05-20T03:50:56.750Z,24.73
2019-05-20T03:53:24.502Z,24.78
2019-05-20T03:55:52.120Z,24.75
2019-05-20T03:58:19.497Z,24.74
2019-05-20T04:00:47.601Z,24.76
2019-05-20T04:03:16.057Z,24.75
2019-05-20T04:05:46.118Z,24.75
2019-05-20T04:08:14.198Z,24.76
2019-05-20T04:10:41.574Z,24.77
2019-05-20T04:13:09.299Z,24.75
2019-05-20T04:15:36.906Z,24.76
2019-05-20T04:18:04.577Z,24.75
2019-05-20T04:20:32.147Z,24.79
2019-05-20T04:22:59.410Z,24.78
2019-05-20T04:25:27.071Z,24.79
2019-05-20T04:27:55.344Z,24.81
2019-05-20T04:30:23.648Z,24.80
2019-05-20T04:32:51.483Z,24.78
2019-05-20T04:35:22.861Z,24.78
2019-05-20T04:42:21.490Z,24.86
2019-05-20T04:44:49.945Z,24.82
2019-05-20T04:47:17.523Z,24.83
2019-05-20T04:49:45.796Z,24.83
2019-05-20T04:52:13.584Z,24.89
2019-05-20T04:54:42.021Z,24.87
2019-05-20T04:57:10.145Z,24.91
2019-05-20T04:59:38.656Z,24.93
2019-05-20T05:02:06.722Z,24.92
2019-05-20T05:04:34.701Z,24.97
2019-05-20T05:07:02.375Z,24.95
2019-05-20T05:09:29.720Z,25.01
2019-05-20T05:11:58.002Z,24.99
2019-05-20T05:14:25.666Z,24.99
2019-05-20T05:16:53.475Z,24.98
2019-05-20T05:19:20.823Z,25.02
2019-05-20T05:21:48.223Z,25.04
2019-05-20T05:24:15.884Z,25.04
2019-05-20T05:26:47.568Z,25.07
2019-05-20T05:29:14.441Z,25.11
2019-05-20T05:31:42.522Z,25.12
2019-05-20T05:34:10.529Z,25.17
2019-05-20T05:36:38.408Z,25.15
2019-05-20T05:39:05.846Z,25.21
2019-05-20T05:41:33.154Z,25.25
2019-05-20T05:44:00.889Z,25.25
2019-05-20T05:46:28.195Z,25.28
2019-05-20T05:48:55.452Z,25.29
2019-05-20T05:51:22.671Z,25.30
2019-05-20T05:53:49.918Z,25.32
2019-05-20T05:56:17.152Z,25.35
2019-05-20T05:58:44.442Z,25.39
2019-05-20T06:01:12.449Z,25.42
2019-05-20T06:03:39.650Z,25.43
2019-05-20T06:06:12.246Z,25.45
2019-05-20T06:08:37.052Z,25.48
2019-05-20T06:11:04.310Z,25.49
2019-05-20T06:13:31.489Z,25.53
2019-05-20T06:15:59.038Z,25.59
2019-05-20T06:18:26.263Z,25.64
2019-05-20T06:21:21.176Z,25.73
2019-05-20T06:23:49.214Z,25.71
2019-05-20T06:26:17.578Z,25.73
2019-05-20T06:28:45.703Z,25.71
2019-05-20T06:31:12.934Z,25.74
2019-05-20T06:33:41.022Z,25.76
2019-05-20T06:36:08.876Z,25.76
2019-05-20T06:38:40.552Z,25.79
2019-05-20T06:41:07.990Z,25.82
2019-05-20T06:43:35.166Z,25.82
2019-05-20T06:46:02.566Z,25.82
2019-05-20T06:48:31.297Z,25.86
2019-05-20T06:50:58.551Z,25.83
2019-05-20T06:53:27.073Z,25.79
2019-05-20T06:55:54.898Z,25.76
2019-05-20T06:58:22.131Z,25.76
2019-05-20T07:00:49.503Z,25.73
2019-05-20T07:03:17.071Z,25.71
2019-05-20T07:05:44.558Z,25.68
2019-05-20T07:08:12.352Z,25.64
2019-05-20T07:10:39.666Z,25.60
2019-05-20T07:13:07.496Z,25.58
2019-05-20T07:15:35.273Z,25.71
2019-05-20T07:18:03.415Z,25.76
2019-05-20T07:20:31.484Z,25.76
2019-05-20T07:22:59.698Z,25.77
2019-05-20T07:25:27.676Z,25.80
2019-05-20T07:27:56.079Z,25.83
2019-05-20T07:30:23.628Z,25.87
2019-05-20T07:32:51.736Z,25.81
2019-05-20T07:35:30.310Z,25.75
2019-05-20T07:37:52.788Z,25.55
2019-05-20T07:40:30.323Z,25.55
2019-05-20T07:45:41.078Z,25.65
2019-05-20T07:48:08.949Z,25.57
2019-05-20T07:50:37.391Z,25.50
2019-05-20T07:53:05.460Z,25.50
2019-05-20T07:55:36.324Z,25.46
2019-05-20T08:00:38.039Z,25.48
2019-05-20T08:03:06.121Z,25.43
2019-05-20T08:05:33.791Z,25.42
2019-05-20T08:08:01.471Z,25.42
2019-05-20T08:10:28.990Z,25.41
2019-05-20T08:12:57.231Z,25.44
2019-05-20T08:15:24.849Z,25.42
2019-05-20T08:17:53.079Z,24.84
2019-05-20T08:20:21.146Z,25.40
2019-05-20T08:22:49.094Z,25.43
2019-05-20T08:25:16.874Z,25.47
2019-05-20T08:27:44.416Z,25.49
2019-05-20T08:30:14.136Z,25.51
2019-05-20T08:32:41.977Z,25.53
2019-05-20T08:35:09.976Z,25.53
2019-05-20T08:37:45.527Z,25.53
2019-05-20T08:40:06.895Z,25.50
2019-05-20T08:42:34.878Z,25.44
2019-05-20T08:45:03.041Z,25.44
2019-05-20T08:47:30.698Z,25.37
2019-05-20T08:49:58.808Z,25.37
2019-05-20T08:52:26.625Z,25.35
2019-05-20T08:54:53.852Z,25.35
2019-05-20T08:57:21.110Z,25.37
2019-05-20T08:59:48.823Z,25.39
2019-05-20T09:02:16.490Z,25.40
2019-05-20T09:04:43.815Z,25.44
2019-05-20T09:07:11.029Z,25.48
2019-05-20T09:09:38.337Z,25.43
2019-05-20T09:12:05.765Z,25.42
2019-05-20T09:14:33.137Z,25.42
2019-05-20T09:17:00.996Z,24.86
2019-05-20T09:19:28.259Z,25.43
2019-05-20T09:21:56.708Z,25.41
2019-05-20T09:24:24.111Z,25.37
2019-05-20T09:26:51.365Z,25.39
2019-05-20T09:29:18.839Z,25.46
2019-05-20T09:31:46.389Z,25.42
2019-05-20T09:34:14.739Z,25.42
2019-05-20T09:36:42.281Z,25.55
2019-05-20T09:39:09.761Z,25.55
2019-05-20T09:41:37.744Z,25.49
2019-05-20T09:44:05.184Z,25.48
2019-05-20T09:46:33.584Z,25.49
2019-05-20T09:49:01.020Z,25.49
2019-05-20T09:51:28.686Z,25.50
2019-05-20T09:53:56.339Z,25.60
2019-05-20T09:56:23.559Z,25.67
2019-05-20T09:58:50.804Z,25.64
2019-05-20T10:01:18.337Z,25.72
2019-05-20T10:03:45.635Z,25.70
2019-05-20T10:06:13.241Z,25.71
2019-05-20T10:08:44.702Z,25.73
2019-05-20T10:11:09.936Z,25.81
2019-05-20T10:13:37.147Z,25.81
2019-05-20T10:16:04.665Z,25.91
2019-05-20T10:18:37.259Z,25.97
2019-05-20T10:21:01.956Z,26.04
2019-05-20T10:23:29.171Z,26.04
2019-05-20T10:25:57.359Z,26.09
2019-05-20T10:28:25.535Z,26.08
2019-05-20T10:30:52.783Z,26.06
2019-05-20T10:33:21.818Z,25.98
2019-05-20T10:35:49.649Z,25.94
2019-05-20T10:38:17.513Z,25.88
2019-05-20T10:40:45.429Z,25.84
2019-05-20T10:43:13.199Z,25.79
2019-05-20T10:45:41.491Z,25.78
2019-05-20T10:48:09.370Z,25.74
2019-05-20T10:50:36.710Z,25.72
2019-05-20T10:53:04.195Z,25.74
2019-05-20T10:55:31.654Z,25.74
2019-05-20T10:57:59.321Z,25.79
2019-05-20T11:00:27.490Z,25.78
2019-05-20T11:02:54.741Z,25.77
2019-05-20T11:05:21.950Z,25.78
2019-05-20T11:07:50.625Z,25.81
2019-05-20T11:10:18.247Z,25.77
2019-05-20T11:12:46.265Z,25.77
2019-05-20T11:15:13.871Z,25.75
2019-05-20T11:17:41.390Z,24.95
2019-05-20T11:20:08.640Z,25.80
2019-05-20T11:22:35.904Z,25.87
2019-05-20T11:25:03.439Z,25.91
2019-05-20T11:27:30.833Z,25.85
2019-05-20T11:29:58.202Z,25.79
2019-05-20T11:32:25.494Z,25.72
2019-05-20T11:34:52.995Z,25.72
2019-05-20T11:37:20.959Z,25.69
2019-05-20T11:39:48.205Z,25.68
2019-05-20T11:42:15.779Z,25.66
2019-05-20T11:44:43.058Z,25.69
2019-05-20T11:47:10.654Z,25.76
2019-05-20T11:49:38.015Z,25.78
2019-05-20T11:52:05.594Z,25.84
2019-05-20T11:54:33.749Z,25.93
2019-05-20T11:57:01.714Z,25.98
2019-05-20T11:59:29.515Z,26.02
2019-05-20T12:01:57.070Z,26.03
2019-05-20T12:04:24.375Z,26.05
2019-05-20T12:06:51.601Z,26.04
2019-05-20T12:09:19.205Z,26.05
2019-05-20T12:11:47.552Z,26.06
2019-05-20T12:14:15.162Z,26.01
2019-05-20T12:16:42.987Z,26.03
2019-05-20T12:19:10.196Z,26.03
2019-05-20T12:21:37.600Z,26.02
2019-05-20T12:24:04.835Z,26.06
2019-05-20T12:26:32.215Z,26.09
2019-05-20T12:29:00.054Z,26.05
2019-05-20T12:31:27.315Z,26.26
2019-05-20T12:33:54.669Z,26.49
2019-05-20T12:36:21.897Z,26.50
2019-05-20T12:38:49.499Z,26.50
2019-05-20T12:41:16.745Z,26.66
2019-05-20T12:43:44.803Z,26.70
2019-05-20T12:46:12.746Z,26.75
2019-05-20T12:48:40.269Z,26.76
2019-05-20T12:52:34.577Z,26.68
2019-05-20T12:55:07.826Z,26.74
2019-05-20T12:57:31.085Z,26.78
2019-05-20T12:59:58.465Z,26.76
2019-05-20T13:02:25.978Z,26.51
2019-05-20T13:04:53.190Z,26.51
2019-05-20T13:07:21.153Z,26.59
2019-05-20T13:09:48.795Z,26.57
2019-05-20T13:12:16.009Z,26.52
2019-05-20T13:14:43.868Z,26.52
2019-05-20T13:17:12.659Z,26.62
2019-05-20T13:19:41.133Z,26.58
2019-05-20T13:22:08.716Z,26.55
2019-05-20T13:24:36.193Z,26.46
2019-05-20T13:27:03.542Z,26.40
2019-05-20T13:29:30.970Z,26.35
2019-05-20T13:31:58.816Z,26.32
2019-05-20T13:34:26.848Z,26.28
2019-05-20T13:36:54.418Z,26.32
2019-05-20T13:39:40.596Z,26.36
2019-05-20T13:42:08.226Z,26.36
2019-05-20T13:44:35.726Z,26.27
2019-05-20T13:47:03.104Z,26.29
2019-05-20T13:49:31.467Z,26.22
2019-05-20T13:51:59.015Z,26.26
2019-05-20T13:54:26.776Z,26.24
2019-05-20T13:56:54.245Z,26.09
2019-05-20T13:59:22.129Z,26.14
2019-05-20T14:01:49.396Z,26.06
2019-05-20T14:04:17.131Z,26.07
2019-05-20T14:06:44.577Z,26.00
2019-05-20T14:09:11.750Z,25.89
2019-05-20T14:11:39.255Z,25.83
2019-05-20T14:14:06.540Z,25.71
2019-05-20T14:16:34.334Z,25.91
2019-05-20T14:19:01.980Z,25.81
2019-05-20T14:21:30.244Z,25.75
2019-05-20T14:25:05.704Z,25.84
2019-05-20T14:27:34.145Z,25.81
2019-05-20T14:30:02.267Z,25.77
2019-05-20T14:32:30.081Z,25.76
2019-05-20T14:34:57.647Z,25.77
2019-05-20T14:37:25.425Z,25.72
2019-05-20T14:39:52.935Z,25.65
2019-05-20T14:42:21.010Z,25.65
2019-05-20T14:44:48.900Z,25.63
2019-05-20T14:47:16.124Z,25.63
2019-05-20T14:49:43.360Z,25.63
2019-05-20T14:52:10.889Z,25.63
2019-05-20T14:54:38.123Z,25.61
2019-05-20T14:57:05.414Z,25.58
2019-05-20T14:59:32.724Z,25.61
2019-05-20T15:02:00.022Z,25.53
2019-05-20T15:04:27.744Z,25.53
2019-05-20T15:06:54.927Z,25.53
2019-05-20T15:09:22.319Z,25.51
2019-05-20T15:11:49.907Z,25.53
2019-05-20T15:14:18.180Z,25.55
2019-05-20T15:16:45.452Z,25.61
2019-05-20T15:19:12.997Z,25.62
2019-05-20T15:21:40.353Z,25.64
2019-05-20T15:24:07.724Z,25.62
2019-05-20T15:26:36.204Z,25.59
2019-05-20T15:29:04.595Z,25.52
2019-05-20T15:31:32.434Z,25.60
2019-05-20T15:34:00.078Z,25.78
2019-05-20T15:36:28.656Z,25.91
2019-05-20T15:38:56.484Z,25.93
2019-05-20T15:41:23.717Z,25.86
2019-05-20T15:43:52.145Z,25.74
2019-05-20T15:46:19.469Z,25.57
2019-05-20T15:48:46.804Z,25.57
2019-05-20T15:51:14.067Z,25.52
2019-05-20T15:53:41.355Z,25.47
2019-05-20T15:56:08.633Z,25.45
2019-05-20T15:58:35.957Z,25.42
2019-05-20T16:01:03.741Z,25.46
2019-05-20T16:03:31.508Z,25.44
2019-05-20T16:06:00.119Z,25.37
2019-05-20T16:08:28.158Z,25.33
2019-05-20T16:10:55.496Z,25.33
2019-05-20T16:13:22.748Z,25.33
2019-05-20T16:15:50.213Z,25.34
2019-05-20T16:18:17.950Z,25.35
2019-05-20T16:20:45.272Z,25.39
2019-05-20T16:24:53.751Z,25.43
2019-05-20T16:27:21.307Z,25.38
2019-05-20T16:30:04.748Z,25.42
2019-05-20T16:32:18.286Z,25.48
2019-05-20T16:34:45.571Z,25.48
2019-05-20T16:37:13.136Z,25.55
2019-05-20T16:39:40.469Z,25.61
2019-05-20T16:42:08.018Z,25.65
2019-05-20T16:44:35.342Z,25.66
2019-05-20T16:47:03.071Z,25.60
2019-05-20T16:49:30.595Z,25.66
2019-05-20T16:51:58.555Z,25.68
2019-05-20T16:54:26.308Z,25.61
2019-05-20T16:56:54.255Z,25.56
2019-05-20T16:59:22.547Z,25.51
2019-05-20T17:01:50.194Z,25.42
2019-05-20T17:04:17.552Z,25.42
2019-05-20T17:06:44.787Z,25.37
2019-05-20T17:09:12.037Z,25.35
2019-05-20T17:11:40.379Z,25.35
2019-05-20T17:14:10.595Z,25.34
2019-05-20T17:16:37.146Z,25.29
2019-05-20T17:19:04.650Z,25.28
2019-05-20T17:21:31.915Z,25.28
2019-05-20T17:23:59.248Z,25.32
2019-05-20T17:26:54.186Z,25.38
2019-05-20T17:29:22.498Z,25.34
2019-05-20T17:31:50.077Z,25.34
2019-05-20T17:34:17.859Z,25.38
2019-05-20T17:36:47.838Z,25.42
2019-05-20T17:39:15.417Z,25.51
2019-05-20T17:41:43.968Z,25.52
2019-05-20T17:44:11.264Z,25.54
2019-05-20T17:46:38.549Z,25.61
2019-05-20T17:49:06.179Z,25.61
2019-05-20T17:51:33.882Z,25.65
2019-05-20T17:54:01.833Z,25.61
2019-05-20T17:56:29.691Z,25.62
2019-05-20T17:58:57.544Z,25.58
2019-05-20T18:03:41.492Z,25.63
2019-05-20T18:06:10.208Z,25.63
2019-05-20T18:08:40.696Z,25.63
2019-05-20T18:11:07.992Z,25.69
2019-05-20T18:13:36.140Z,25.67
2019-05-20T18:16:03.567Z,25.59
2019-05-20T18:18:31.443Z,25.59
2019-05-20T18:20:58.824Z,25.58
2019-05-20T18:23:26.029Z,25.55
2019-05-20T18:25:53.288Z,25.56
2019-05-20T18:28:20.647Z,25.52
2019-05-20T18:30:49.034Z,25.56
2019-05-20T18:33:16.302Z,25.59
2019-05-20T18:35:44.064Z,25.55
2019-05-20T18:38:14.068Z,25.59
2019-05-20T18:40:42.021Z,25.61
2019-05-20T18:43:10.241Z,25.53
2019-05-20T18:45:38.330Z,25.53
2019-05-20T18:48:05.786Z,25.56
2019-05-20T18:50:33.161Z,25.58
2019-05-20T18:53:00.606Z,25.61
2019-05-20T18:55:28.608Z,25.61
2019-05-20T18:57:56.043Z,25.62
2019-05-20T19:00:24.199Z,25.60
2019-05-20T19:02:52.202Z,25.63
2019-05-20T19:05:19.768Z,25.61
2019-05-20T19:07:47.591Z,25.59
2019-05-20T19:10:14.984Z,25.55
2019-05-20T19:12:43.125Z,25.56
2019-05-20T19:15:11.444Z,25.63
2019-05-20T19:17:38.821Z,25.63
2019-05-20T19:20:08.607Z,25.57
2019-05-20T19:22:36.274Z,25.63
2019-05-20T19:25:05.622Z,25.65
2019-05-20T19:27:33.241Z,25.68
2019-05-20T19:30:00.424Z,25.68
2019-05-20T19:32:28.875Z,25.71
2019-05-20T19:34:56.124Z,25.70
2019-05-20T19:37:24.088Z,25.71
2019-05-20T19:39:51.725Z,25.67
2019-05-20T19:42:18.994Z,25.61
2019-05-20T19:44:47.057Z,25.68
2019-05-20T19:47:14.312Z,25.68
2019-05-20T19:49:42.726Z,25.74
2019-05-20T19:52:10.239Z,25.75
2019-05-20T19:54:37.791Z,25.77
2019-05-20T19:57:05.050Z,25.77
2019-05-20T19:59:33.121Z,25.80
2019-05-20T20:02:16.424Z,25.79
2019-05-20T20:04:32.225Z,25.79
2019-05-20T20:06:59.494Z,25.77
2019-05-20T20:09:26.744Z,25.79
2019-05-20T20:11:54.065Z,25.76
2019-05-20T20:14:22.087Z,25.78
2019-05-20T20:16:49.408Z,25.77
2019-05-20T20:19:16.717Z,25.77
2019-05-20T20:21:44.011Z,25.68
2019-05-20T20:24:11.312Z,25.70
2019-05-20T20:26:39.265Z,25.65
2019-05-20T20:29:11.048Z,25.60
2019-05-20T20:31:37.859Z,25.42
2019-05-20T20:34:05.296Z,25.43
2019-05-20T20:36:33.285Z,25.43
2019-05-20T20:39:01.465Z,25.53
2019-05-20T20:41:29.129Z,25.46
2019-05-20T20:43:57.484Z,25.41
2019-05-20T20:46:25.078Z,25.41
2019-05-20T20:48:52.963Z,25.37
2019-05-20T20:51:20.429Z,25.37
2019-05-20T20:53:47.866Z,25.34
2019-05-20T20:56:24.836Z,25.33
2019-05-20T20:58:45.235Z,25.27
2019-05-20T21:01:12.491Z,25.27
2019-05-20T21:03:39.780Z,25.22
2019-05-20T21:07:12.181Z,25.16
2019-05-20T21:10:09.423Z,25.15
2019-05-20T21:12:36.639Z,25.09
2019-05-20T21:15:04.680Z,25.04
2019-05-20T21:17:32.697Z,25.03
2019-05-20T21:20:00.483Z,25.04
2019-05-20T21:22:30.183Z,25.01
2019-05-20T21:24:57.434Z,25.01
2019-05-20T21:27:25.291Z,24.97
2019-05-20T21:29:52.875Z,24.89
2019-05-20T21:32:20.079Z,24.92
2019-05-20T21:34:48.194Z,24.92
2019-05-20T21:37:15.715Z,24.88
2019-05-20T21:39:43.720Z,24.90
2019-05-20T21:42:11.408Z,24.89
2019-05-20T21:44:38.987Z,24.87
2019-05-20T21:47:06.500Z,24.86
2019-05-20T21:49:34.161Z,24.84
2019-05-20T21:52:02.003Z,24.87
2019-05-20T21:54:29.907Z,24.83
2019-05-20T21:56:58.053Z,24.86
2019-05-20T21:59:25.916Z,24.82
2019-05-20T22:01:53.206Z,24.82
2019-05-20T22:04:20.590Z,24.81
2019-05-20T22:06:47.847Z,24.79
2019-05-20T22:09:15.460Z,24.79
2019-05-20T22:11:43.604Z,24.79
2019-05-20T22:14:10.888Z,24.79
2019-05-20T22:16:38.136Z,24.76
2019-05-20T22:19:05.790Z,24.77
2019-05-20T22:21:39.637Z,24.80
2019-05-20T22:24:07.104Z,24.74
2019-05-20T22:26:34.374Z,24.71
2019-05-20T22:29:01.718Z,24.71
2019-05-20T22:31:29.530Z,24.72
2019-05-20T22:33:57.060Z,24.77
2019-05-20T22:36:24.269Z,24.73
2019-05-20T22:38:51.878Z,24.63
2019-05-20T22:41:19.180Z,24.71
2019-05-20T22:43:46.740Z,24.67
2019-05-20T22:46:14.176Z,24.71
2019-05-20T22:48:41.385Z,24.71
2019-05-20T22:51:08.619Z,24.72
2019-05-20T22:53:36.218Z,24.59
2019-05-20T22:56:03.756Z,24.59
2019-05-20T23:00:57.016Z,24.73
2019-05-20T23:03:24.220Z,24.66
2019-05-20T23:05:51.931Z,24.31
2019-05-20T23:08:19.184Z,24.64
2019-05-20T23:10:46.861Z,24.64
2019-05-20T23:13:14.936Z,24.66
2019-05-20T23:15:43.006Z,24.65
2019-05-20T23:18:10.710Z,23.96
2019-05-20T23:20:38.273Z,24.64
2019-05-20T23:23:05.533Z,24.65
2019-05-20T23:25:32.846Z,24.68
2019-05-20T23:28:00.024Z,24.70
2019-05-20T23:30:27.275Z,24.68
2019-05-20T23:32:55.793Z,24.68
2019-05-20T23:35:23.749Z,24.70
2019-05-20T23:37:51.157Z,24.64
2019-05-20T23:40:18.436Z,24.61
2019-05-20T23:42:45.784Z,24.51
2019-05-20T23:45:13.280Z,24.51
2019-05-20T23:47:40.548Z,24.57
2019-05-20T23:50:07.785Z,23.61
2019-05-20T23:52:35.451Z,24.54
2019-05-20T23:55:02.856Z,24.56
2019-05-20T23:57:30.184Z,24.52
2019-05-20T23:59:57.430Z,24.53
